Time;durP1;ratioP1;P1;durP2;ratioP2;P2;SDS_P1;SDS_P2;PMS_P1;PMS_P2;Temp;Humidity;BMP_temperature;BMP_pressure;BME280_temperature;BME280_humidity;BME280_pressure;Samples;Min_cycle;Max_cycle;Signal;HPM_P1;HPM_P2
2022/03/31 00:01:07;;;;;;;26.90;11.35;;;;;;;9.75;86.34;150105.45;1765170;81;21596;-62
2022/03/31 00:03:34;;;;;;;28.83;10.35;;;;;;;9.71;86.46;150095.05;1781372;80;21076;-62
2022/03/31 00:06:02;;;;;;;35.80;11.20;;;;;;;9.68;86.61;150088.59;1753242;80;20954;-63
2022/03/31 00:08:29;;;;;;;31.80;10.35;;;;;;;9.66;86.79;150083.41;1752774;80;21545;-61
2022/03/31 00:10:58;;;;;;;33.33;11.40;;;;;;;9.65;86.95;150080.81;1753628;80;20922;-62
2022/03/31 00:13:28;;;;;;;31.82;10.70;;;;;;;9.62;87.01;150073.05;1781700;80;21517;-62
2022/03/31 00:15:58;;;;;;;28.52;10.48;;;;;;;9.60;87.27;150067.81;1782227;80;21414;-62
2022/03/31 00:18:27;;;;;;;30.43;10.05;;;;;;;9.55;87.49;150054.86;1782061;80;21079;-63
2022/03/31 00:32:58;;;;;;;27.58;10.43;;;;;;;9.43;88.51;150026.36;1782110;80;21032;-60
2022/03/31 00:35:25;;;;;;;32.50;10.60;;;;;;;9.44;88.68;150028.95;1782320;80;21135;-60
2022/03/31 00:37:53;;;;;;;28.17;10.13;;;;;;;9.46;88.71;150034.13;1782362;80;21064;-60
2022/03/31 00:40:21;;;;;;;29.80;9.83;;;;;;;9.46;88.71;150034.13;1782006;80;21143;-62
2022/03/31 00:42:55;;;;;;;28.40;11.15;;;;;;;9.49;88.69;150039.31;1782189;80;21154;-61
2022/03/31 00:45:46;;;;;;;30.05;10.82;;;;;;;9.50;88.74;150041.91;1782175;80;21040;-63
2022/03/31 00:50:34;;;;;;;25.50;10.40;;;;;;;9.59;88.59;150065.22;1821014;78;28114;-61
2022/03/31 00:53:02;;;;;;;23.85;10.93;;;;;;;9.55;88.58;150054.86;1782156;80;20980;-61
2022/03/31 00:55:30;;;;;;;32.15;10.50;;;;;;;9.57;88.48;150060.03;1760211;80;21244;-61
2022/03/31 00:57:57;;;;;;;31.62;11.90;;;;;;;9.57;88.35;150060.03;1782209;79;20890;-61
2022/03/31 01:00:25;;;;;;;32.80;12.90;;;;;;;9.56;88.31;150057.45;1781956;79;21027;-60
2022/03/31 01:02:52;;;;;;;36.80;13.28;;;;;;;9.57;88.34;150060.03;1782328;79;20961;-61
2022/03/31 01:05:20;;;;;;;36.53;13.58;;;;;;;9.56;88.28;150058.77;1782521;80;21644;-62
2022/03/31 01:07:49;;;;;;;34.40;12.60;;;;;;;9.57;88.24;150061.36;1782760;79;21265;-60
2022/03/31 01:10:17;;;;;;;29.70;13.08;;;;;;;9.59;88.17;150065.22;1782851;79;20964;-62
2022/03/31 01:12:46;;;;;;;30.27;12.93;;;;;;;9.60;88.10;150067.81;1760821;80;21040;-61
2022/03/31 01:15:18;;;;;;;30.45;11.33;;;;;;;9.59;88.19;150065.22;1782425;80;21028;-61
2022/03/31 01:17:47;;;;;;;29.60;10.95;;;;;;;9.61;88.21;150070.41;1783099;80;21015;-60
2022/03/31 01:20:19;;;;;;;32.15;10.53;;;;;;;9.61;88.13;150070.41;1783177;80;21281;-59
2022/03/31 01:22:46;;;;;;;34.33;10.65;;;;;;;9.57;88.17;150061.36;1760697;80;20964;-61
2022/03/31 01:25:14;;;;;;;33.45;9.75;;;;;;;9.54;88.15;150053.59;1783059;80;21420;-62
2022/03/31 01:27:43;;;;;;;36.68;10.70;;;;;;;9.51;88.09;150044.48;1782608;80;21048;-62
2022/03/31 01:30:16;;;;;;;22.13;9.08;;;;;;;9.44;88.24;150028.95;1782760;79;20949;-61
2022/03/31 01:32:45;;;;;;;28.83;10.32;;;;;;;9.37;88.48;150009.48;1782560;80;21214;-62
2022/03/31 01:35:13;;;;;;;32.13;9.70;;;;;;;9.30;88.69;149993.94;1782447;80;21012;-62
2022/03/31 01:37:40;;;;;;;31.17;10.65;;;;;;;9.27;89.03;149984.86;1782642;79;20972;-62
2022/03/31 01:40:09;;;;;;;26.27;10.68;;;;;;;9.26;89.20;149982.27;1716686;80;21220;-60
2022/03/31 01:42:38;;;;;;;35.03;10.55;;;;;;;9.26;89.34;149983.53;1783026;79;20984;-60
2022/03/31 01:45:08;;;;;;;27.37;11.10;;;;;;;9.27;89.47;149984.86;1760860;80;21271;-60
2022/03/31 01:47:35;;;;;;;31.97;11.10;;;;;;;9.29;89.63;149990.03;1782387;79;20917;-60
2022/03/31 01:50:04;;;;;;;29.80;10.10;;;;;;;9.31;89.65;149995.22;1757086;80;21068;-60
2022/03/31 01:52:33;;;;;;;26.55;9.33;;;;;;;9.33;89.64;150000.41;1780190;80;21004;-59
2022/03/31 01:55:00;;;;;;;31.90;9.43;;;;;;;9.34;89.69;150001.72;1739643;78;20976;-59
2022/03/31 01:57:28;;;;;;;29.70;8.75;;;;;;;9.37;89.71;150010.77;1817734;78;21454;-62
2022/03/31 01:59:55;;;;;;;28.10;9.10;;;;;;;9.39;89.62;150015.94;1786462;78;21019;-60
2022/03/31 02:02:24;;;;;;;29.07;8.63;;;;;;;9.38;89.63;150013.34;1786318;78;21022;-59
2022/03/31 02:04:52;;;;;;;30.88;8.70;;;;;;;9.38;89.69;150012.08;1817671;77;21007;-59
2022/03/31 02:07:19;;;;;;;27.32;8.78;;;;;;;9.39;89.72;150014.67;1785974;78;20979;-59
2022/03/31 02:09:48;;;;;;;25.60;9.03;;;;;;;9.39;89.79;150014.67;1817218;77;20963;-61
2022/03/31 02:12:16;;;;;;;34.05;9.58;;;;;;;9.37;89.95;150010.77;1817099;78;20994;-62
2022/03/31 02:14:43;;;;;;;30.82;8.20;;;;;;;9.36;90.04;150008.17;1817602;78;21106;-62
2022/03/31 02:17:14;;;;;;;24.40;7.95;;;;;;;9.34;90.14;150002.98;1816928;78;21014;-60
2022/03/31 02:19:41;;;;;;;27.32;8.20;;;;;;;9.31;90.26;149995.22;1817458;78;21058;-61
2022/03/31 02:22:09;;;;;;;24.72;6.95;;;;;;;9.27;90.43;149984.86;1817814;78;21307;-61
2022/03/31 02:24:41;;;;;;;25.37;8.00;;;;;;;9.26;90.61;149982.27;1817437;78;21012;-62
2022/03/31 02:27:09;;;;;;;24.25;7.87;;;;;;;9.23;90.79;149974.50;1817274;78;21427;-61
2022/03/31 02:29:36;;;;;;;22.65;7.37;;;;;;;9.22;91.12;149971.91;1817183;78;21020;-62
2022/03/31 02:32:05;;;;;;;29.10;8.53;;;;;;;9.16;91.43;149958.91;1785619;78;20877;-62
2022/03/31 02:34:34;;;;;;;31.48;7.58;;;;;;;9.10;91.53;149942.09;1817231;78;21065;-61
2022/03/31 02:37:22;;;;;;;22.45;7.95;;;;;;;9.03;91.81;149926.50;1817041;78;21237;-62
2022/03/31 02:39:50;;;;;;;27.55;8.53;;;;;;;8.96;92.10;149907.09;1817482;78;21347;-63
2022/03/31 02:42:19;;;;;;;29.95;8.65;;;;;;;8.89;92.56;149891.50;1785763;78;20959;-63
2022/03/31 02:44:48;;;;;;;34.15;8.85;;;;;;;8.84;92.96;149877.23;1817149;77;21044;-62
2022/03/31 02:47:15;;;;;;;26.60;7.42;;;;;;;8.82;93.31;149873.38;1817151;78;22114;-60
2022/03/31 02:49:43;;;;;;;22.10;7.03;;;;;;;8.80;93.69;149868.20;1814827;78;21063;-61
2022/03/31 02:52:11;;;;;;;27.25;7.55;;;;;;;8.77;93.94;149860.44;1811177;78;21224;-62
2022/03/31 02:57:24;;;;;;;24.30;7.30;;;;;;;8.70;94.60;149843.58;1811448;78;20920;-60
2022/03/31 02:59:52;;;;;;;21.15;7.75;;;;;;;8.67;95.07;149834.48;1804647;78;21107;-60
2022/03/31 03:02:19;;;;;;;22.73;7.80;;;;;;;8.65;95.30;149830.63;1811345;78;21485;-61
2022/03/31 03:04:46;;;;;;;29.98;8.63;;;;;;;8.62;95.76;149821.55;1811679;78;21004;-61
2022/03/31 03:07:15;;;;;;;17.95;7.37;;;;;;;8.56;95.94;149808.59;1810937;79;21067;-63
2022/03/31 03:09:44;;;;;;;29.75;9.30;;;;;;;8.54;96.37;149803.42;1804478;78;20984;-61
2022/03/31 03:12:13;;;;;;;25.05;7.72;;;;;;;8.50;96.47;149791.75;1811811;79;21004;-61
2022/03/31 03:14:41;;;;;;;23.18;7.70;;;;;;;8.46;96.72;149782.61;1811303;79;21029;-61
2022/03/31 03:17:10;;;;;;;26.52;8.23;;;;;;;8.42;96.91;149772.25;1811621;79;20948;-59
2022/03/31 03:19:39;;;;;;;34.55;7.97;;;;;;;8.36;97.19;149757.98;1811426;78;21829;-60
2022/03/31 03:22:06;;;;;;;30.00;7.62;;;;;;;8.33;97.66;149748.95;1811532;79;21027;-60
2022/03/31 03:24:33;;;;;;;27.25;7.45;;;;;;;8.27;98.01;149735.97;1777538;79;21203;-63
2022/03/31 03:27:01;;;;;;;24.77;7.12;;;;;;;8.24;98.39;149728.19;1778107;79;20933;-61
2022/03/31 03:29:29;;;;;;;26.80;8.45;;;;;;;8.20;98.96;149717.84;1811566;79;21021;-61
2022/03/31 03:31:57;;;;;;;30.45;7.75;;;;;;;8.18;99.24;149712.66;1811863;78;20933;-61
2022/03/31 03:34:25;;;;;;;22.07;7.05;;;;;;;8.15;99.95;149706.16;1811625;79;21691;-63
2022/03/31 03:36:53;;;;;;;24.30;7.00;;;;;;;8.12;100.00;149697.13;1812013;79;21119;-61
2022/03/31 03:39:21;;;;;;;24.75;8.25;;;;;;;8.10;100.00;149691.95;1811194;78;21474;-62
2022/03/31 03:41:50;;;;;;;33.98;9.93;;;;;;;8.06;100.00;149682.88;1811722;79;20936;-61
2022/03/31 03:44:17;;;;;;;28.17;7.78;;;;;;;8.05;100.00;149678.97;1811141;79;20912;-61
2022/03/31 03:46:45;;;;;;;28.40;7.67;;;;;;;8.05;100.00;149678.97;1811599;79;21043;-60
2022/03/31 03:49:13;;;;;;;20.40;7.08;;;;;;;8.02;100.00;149673.80;1811476;77;21982;-61
2022/03/31 03:51:41;;;;;;;30.48;7.42;;;;;;;8.02;100.00;149672.52;1817243;78;21067;-60
2022/03/31 03:54:08;;;;;;;30.00;7.37;;;;;;;8.00;100.00;149667.34;1817330;78;20985;-60
2022/03/31 03:56:36;;;;;;;31.90;7.08;;;;;;;7.99;100.00;149666.03;1816920;78;21133;-63
2022/03/31 03:59:04;;;;;;;26.40;6.85;;;;;;;7.99;100.00;149666.03;1817156;78;21473;-60
2022/03/31 04:01:33;;;;;;;23.87;7.05;;;;;;;7.99;100.00;149666.03;1817428;78;21003;-60
2022/03/31 04:04:00;;;;;;;27.75;7.72;;;;;;;8.01;100.00;149671.20;1817440;78;21417;-59
2022/03/31 04:06:29;;;;;;;25.57;7.90;;;;;;;8.03;100.00;149676.38;1817032;77;21027;-60
2022/03/31 04:08:57;;;;;;;31.12;7.45;;;;;;;8.05;100.00;149680.28;1816905;78;20995;-62
2022/03/31 04:11:26;;;;;;;21.87;6.37;;;;;;;8.08;100.00;149688.05;1816831;78;22074;-61
2022/03/31 04:13:54;;;;;;;29.55;7.65;;;;;;;8.13;100.00;149699.72;1786202;78;21125;-61
2022/03/31 04:16:21;;;;;;;28.73;6.83;;;;;;;8.18;100.00;149712.66;1817034;77;21176;-60
2022/03/31 04:18:51;;;;;;;25.97;7.37;;;;;;;8.24;100.00;149728.19;1817521;78;21154;-61
2022/03/31 04:21:19;;;;;;;27.00;6.13;;;;;;;8.29;100.00;149741.19;1817681;78;20999;-61
2022/03/31 04:23:48;;;;;;;20.68;6.10;;;;;;;8.38;100.00;149761.89;1817030;78;20983;-62
2022/03/31 04:26:16;;;;;;;22.65;6.50;;;;;;;8.46;100.00;149782.61;1815699;78;21443;-60
2022/03/31 04:28:44;;;;;;;30.23;7.42;;;;;;;8.55;100.00;149806.00;1816409;78;21047;-61
2022/03/31 04:31:11;;;;;;;26.73;6.15;;;;;;;8.67;100.00;149835.81;1816550;78;21051;-61
2022/03/31 04:33:39;;;;;;;21.45;7.03;;;;;;;8.79;100.00;149865.61;1816687;78;21027;-60
2022/03/31 04:36:07;;;;;;;29.90;7.00;;;;;;;8.92;100.00;149896.69;1785696;78;20989;-61
2022/03/31 04:38:34;;;;;;;24.87;7.17;;;;;;;9.04;100.00;149927.81;1816457;78;21036;-62
2022/03/31 04:41:01;;;;;;;24.35;7.08;;;;;;;9.16;100.00;149957.63;1817230;78;20964;-62
2022/03/31 04:43:29;;;;;;;25.43;6.97;;;;;;;9.26;100.00;149982.27;1816630;78;21059;-60
2022/03/31 04:45:56;;;;;;;29.98;6.90;;;;;;;9.35;100.00;150005.58;1817017;78;21489;-61
2022/03/31 04:48:24;;;;;;;31.12;7.08;;;;;;;9.45;100.00;150031.53;1815969;78;21098;-61
2022/03/31 04:50:51;;;;;;;24.60;6.97;;;;;;;9.60;100.00;150067.81;1818557;78;21441;-61
2022/03/31 04:53:19;;;;;;;31.62;7.28;;;;;;;9.71;99.11;150096.36;1819555;78;21023;-62
2022/03/31 04:55:47;;;;;;;31.57;6.92;;;;;;;9.85;98.35;150130.11;1819451;78;21051;-62
2022/03/31 04:58:14;;;;;;;30.60;6.72;;;;;;;9.96;97.51;150158.61;1818921;77;21098;-62
2022/03/31 05:00:42;;;;;;;28.57;6.90;;;;;;;10.03;96.60;150175.48;1819406;78;21023;-62
2022/03/31 05:03:11;;;;;;;27.50;6.47;;;;;;;10.09;95.75;150191.03;1788408;78;20893;-62
2022/03/31 05:05:38;;;;;;;28.73;6.40;;;;;;;10.14;95.13;150202.73;1818905;78;21082;-62
2022/03/31 05:08:05;;;;;;;22.52;6.55;;;;;;;10.21;94.48;150219.59;1819106;78;20972;-61
2022/03/31 05:10:32;;;;;;;26.10;6.70;;;;;;;10.27;93.81;150236.44;1819294;78;21231;-61
2022/03/31 05:13:00;;;;;;;23.55;7.03;;;;;;;10.36;93.27;150257.22;1787713;78;21137;-62
2022/03/31 05:15:27;;;;;;;24.30;7.20;;;;;;;10.49;92.71;150290.97;1819441;78;21285;-61
2022/03/31 05:17:55;;;;;;;35.10;6.70;;;;;;;10.63;91.97;150324.73;1819711;78;20964;-62
2022/03/31 05:20:23;;;;;;;24.23;7.50;;;;;;;10.77;91.01;150361.09;1819175;78;21085;-61
2022/03/31 05:22:50;;;;;;;21.45;6.28;;;;;;;10.86;90.17;150384.44;1819872;77;21328;-61
2022/03/31 05:25:18;;;;;;;32.70;6.72;;;;;;;10.94;89.49;150403.91;1819214;78;21094;-63
2022/03/31 05:27:47;;;;;;;21.55;6.65;;;;;;;11.04;88.81;150428.58;1819822;78;21264;-61
2022/03/31 05:30:18;;;;;;;23.10;6.83;;;;;;;11.15;87.99;150457.11;1820420;78;21014;-61
2022/03/31 05:32:48;;;;;;;24.07;6.75;;;;;;;11.22;86.81;150472.72;1820417;77;20995;-61
2022/03/31 05:35:15;;;;;;;23.50;6.80;;;;;;;11.26;86.23;150483.09;1788754;78;21461;-62
2022/03/31 05:37:44;;;;;;;27.87;6.67;;;;;;;11.33;86.01;150501.27;1820322;78;21011;-61
2022/03/31 05:40:12;;;;;;;23.05;6.37;;;;;;;11.45;85.74;150531.12;1820287;78;21192;-62
2022/03/31 05:42:39;;;;;;;20.48;6.60;;;;;;;11.58;85.16;150563.58;1815219;78;20939;-61
2022/03/31 05:45:09;;;;;;;26.95;6.15;;;;;;;11.70;84.34;150593.45;1788476;78;20976;-61
2022/03/31 05:47:37;;;;;;;27.15;6.72;;;;;;;11.79;83.36;150616.86;1820425;78;21011;-61
2022/03/31 05:50:08;;;;;;;27.93;6.87;;;;;;;11.86;82.83;150635.03;1818364;78;21091;-61
2022/03/31 05:52:40;;;;;;;19.07;6.12;;;;;;;11.92;81.93;150649.33;1780617;77;21500;-62
2022/03/31 05:55:09;;;;;;;22.62;6.92;;;;;;;11.94;81.32;150654.52;1778825;80;20971;-62
2022/03/31 05:57:37;;;;;;;23.73;6.62;;;;;;;11.96;80.76;150659.70;1778029;80;21098;-61
2022/03/31 06:00:06;;;;;;;22.67;6.30;;;;;;;12.03;80.62;150676.66;1779110;80;20897;-61
2022/03/31 06:02:37;;;;;;;22.77;6.50;;;;;;;12.13;79.97;150701.34;1810150;79;21516;-61
2022/03/31 06:05:06;;;;;;;26.33;6.60;;;;;;;12.22;79.22;150724.70;1811778;78;21163;-60
2022/03/31 06:07:35;;;;;;;30.82;7.05;;;;;;;12.27;78.72;150737.73;1811956;79;20987;-61
2022/03/31 06:10:04;;;;;;;26.75;6.53;;;;;;;12.29;78.19;150742.92;1811754;79;21004;-60
2022/03/31 06:12:34;;;;;;;30.12;7.05;;;;;;;12.30;77.77;150745.52;1811434;79;20956;-60
2022/03/31 06:15:03;;;;;;;21.97;5.53;;;;;;;12.34;77.51;150753.31;1811817;79;21438;-62
2022/03/31 06:17:33;;;;;;;21.62;7.00;;;;;;;12.38;77.36;150763.69;1778012;77;21538;-59
2022/03/31 06:20:04;;;;;;;22.70;5.97;;;;;;;12.45;77.06;150781.88;1811470;79;21446;-59
2022/03/31 06:22:33;;;;;;;27.37;6.60;;;;;;;12.52;76.57;150800.09;1811988;78;21627;-59
2022/03/31 06:25:00;;;;;;;18.75;5.83;;;;;;;12.57;76.46;150813.08;1811833;79;20952;-59
2022/03/31 06:27:28;;;;;;;20.88;6.42;;;;;;;12.61;75.74;150822.19;1811985;78;21016;-60
2022/03/31 06:29:55;;;;;;;25.57;6.62;;;;;;;12.58;75.58;150815.67;1811972;79;21119;-60
2022/03/31 06:32:23;;;;;;;28.27;6.92;;;;;;;12.54;75.67;150805.28;1811212;79;21106;-59
2022/03/31 06:34:50;;;;;;;23.70;6.80;;;;;;;12.53;75.87;150802.69;1811603;79;21016;-60
2022/03/31 06:37:19;;;;;;;25.70;6.62;;;;;;;12.63;76.06;150827.39;1811984;79;20936;-59
2022/03/31 06:39:47;;;;;;;19.82;6.97;;;;;;;12.86;75.84;150885.84;1811523;79;21067;-59
2022/03/31 06:42:14;;;;;;;20.68;6.25;;;;;;;13.21;75.10;150972.94;1803469;79;21062;-61
2022/03/31 06:44:42;;;;;;;24.35;6.30;;;;;;;13.55;73.83;151057.50;1810639;78;21509;-61
2022/03/31 06:47:09;;;;;;;21.33;6.55;;;;;;;13.74;72.20;151105.66;1811008;79;21012;-61
2022/03/31 06:49:37;;;;;;;30.17;6.83;;;;;;;13.81;71.38;151122.53;1810588;78;21059;-59
2022/03/31 06:52:06;;;;;;;27.58;6.58;;;;;;;13.85;71.38;151132.97;1819657;77;21031;-59
2022/03/31 06:54:33;;;;;;;22.93;7.53;;;;;;;13.86;70.87;151136.84;1820585;78;21088;-59
2022/03/31 06:57:00;;;;;;;21.12;6.53;;;;;;;13.86;70.88;151135.58;1820652;78;21007;-60
2022/03/31 06:59:30;;;;;;;21.50;7.08;;;;;;;13.83;70.57;151129.05;1820018;78;21126;-61
2022/03/31 07:01:57;;;;;;;23.12;6.50;;;;;;;13.80;70.62;151119.92;1820895;78;20905;-60
2022/03/31 07:04:25;;;;;;;24.12;6.47;;;;;;;13.72;70.59;151101.73;1789326;78;21090;-59
2022/03/31 07:06:52;;;;;;;24.07;6.42;;;;;;;13.66;70.81;151086.14;1785187;80;21240;-60
2022/03/31 07:09:19;;;;;;;19.73;5.78;;;;;;;13.62;70.93;151075.75;1784450;80;21031;-62
2022/03/31 07:11:47;;;;;;;28.80;6.87;;;;;;;13.61;71.05;151073.14;1785064;79;21078;-62
2022/03/31 07:14:16;;;;;;;30.92;7.10;;;;;;;13.56;71.00;151060.11;1784924;80;21477;-63
2022/03/31 07:16:45;;;;;;;33.00;6.72;;;;;;;13.45;71.12;151034.13;1785180;79;21290;-61
2022/03/31 07:19:12;;;;;;;18.37;5.80;;;;;;;13.42;71.62;151026.28;1785018;79;21467;-61
2022/03/31 07:21:40;;;;;;;25.25;6.08;;;;;;;13.44;71.73;151030.20;1785253;80;21050;-62
2022/03/31 07:24:07;;;;;;;22.10;6.50;;;;;;;13.45;71.66;151032.80;1784915;79;20943;-62
2022/03/31 07:26:39;;;;;;;22.60;6.37;;;;;;;13.39;71.84;151018.48;1756701;79;21008;-63
2022/03/31 07:29:08;;;;;;;23.45;6.40;;;;;;;13.36;72.03;151010.64;1785072;79;21054;-64
2022/03/31 07:31:36;;;;;;;24.12;6.15;;;;;;;13.34;72.19;151005.44;1784507;80;22048;-62
2022/03/31 07:34:07;;;;;;;27.13;6.65;;;;;;;13.35;72.26;151006.77;1784503;79;20976;-62
2022/03/31 07:36:35;;;;;;;29.12;6.97;;;;;;;13.31;72.31;150997.66;1785029;80;21042;-61
2022/03/31 07:39:02;;;;;;;25.68;6.80;;;;;;;13.30;72.77;150995.05;1785292;80;21579;-62
2022/03/31 07:41:30;;;;;;;26.77;6.22;;;;;;;13.31;72.65;150997.66;1788795;79;21041;-62
2022/03/31 07:43:57;;;;;;;24.70;6.80;;;;;;;13.26;72.78;150984.66;1795820;79;20941;-63
2022/03/31 07:46:24;;;;;;;27.50;6.67;;;;;;;13.21;73.06;150971.66;1783880;80;21056;-62
2022/03/31 07:48:51;;;;;;;22.20;6.72;;;;;;;13.17;73.40;150963.88;1784621;80;21103;-61
2022/03/31 07:51:19;;;;;;;20.92;6.60;;;;;;;13.25;73.66;150982.06;1777773;79;21076;-62
2022/03/31 07:53:47;;;;;;;23.18;7.20;;;;;;;13.24;73.52;150979.45;1770215;79;21044;-62
2022/03/31 07:56:15;;;;;;;22.60;6.92;;;;;;;13.17;73.66;150963.88;1770647;79;21219;-61
2022/03/31 07:58:42;;;;;;;21.30;6.58;;;;;;;13.10;73.82;150944.36;1757471;81;21028;-61
2022/03/31 08:01:11;;;;;;;28.27;8.30;;;;;;;13.00;74.24;150920.94;1771205;79;20986;-63
2022/03/31 08:03:39;;;;;;;26.33;7.08;;;;;;;12.90;74.56;150896.23;1757749;81;21154;-62
2022/03/31 08:06:08;;;;;;;23.62;6.95;;;;;;;12.87;74.91;150888.44;1758294;81;21411;-62
2022/03/31 08:08:38;;;;;;;23.87;6.47;;;;;;;12.87;75.20;150887.17;1770551;81;21874;-63
2022/03/31 08:11:05;;;;;;;26.02;7.62;;;;;;;12.93;75.32;150902.75;1771446;79;20950;-62
2022/03/31 08:13:33;;;;;;;23.73;7.78;;;;;;;12.98;75.30;150914.47;1770778;80;21062;-60
2022/03/31 08:16:00;;;;;;;27.20;7.30;;;;;;;13.06;75.12;150935.25;1757677;81;21503;-61
2022/03/31 08:18:31;;;;;;;23.02;7.08;;;;;;;13.13;75.17;150952.16;1770321;81;21053;-62
2022/03/31 08:20:59;;;;;;;28.42;7.67;;;;;;;13.23;74.90;150976.86;1770939;80;20981;-59
2022/03/31 08:23:28;;;;;;;32.78;7.92;;;;;;;13.30;74.75;150995.05;1770773;79;20958;-60
2022/03/31 08:25:56;;;;;;;25.05;7.25;;;;;;;13.42;74.34;151026.28;1771467;81;21033;-61
2022/03/31 08:28:25;;;;;;;23.60;6.50;;;;;;;13.53;74.21;151052.31;1771506;81;21088;-61
2022/03/31 08:30:53;;;;;;;25.45;7.10;;;;;;;13.64;73.87;151080.94;1771103;79;21021;-61
2022/03/31 08:33:20;;;;;;;22.60;7.40;;;;;;;13.78;73.57;151114.72;1758460;81;21241;-60
2022/03/31 08:35:48;;;;;;;29.67;7.20;;;;;;;13.92;73.25;151151.17;1758100;81;21917;-62
2022/03/31 08:38:15;;;;;;;20.20;6.60;;;;;;;14.06;72.67;151185.00;1770597;79;20985;-62
2022/03/31 08:40:43;;;;;;;27.52;7.62;;;;;;;14.16;71.91;151211.00;1771245;79;21115;-62
2022/03/31 08:43:10;;;;;;;27.15;7.22;;;;;;;14.18;71.61;151216.20;1758453;81;20993;-61
2022/03/31 08:45:37;;;;;;;23.35;7.00;;;;;;;14.24;71.66;151231.81;1757877;81;21190;-62
2022/03/31 08:48:07;;;;;;;23.10;7.80;;;;;;;14.37;71.41;151263.05;1771472;79;21033;-62
2022/03/31 08:50:36;;;;;;;25.32;7.45;;;;;;;14.51;70.77;151298.19;1771563;81;21530;-62
2022/03/31 08:53:04;;;;;;;25.72;7.80;;;;;;;14.63;70.39;151328.11;1762823;79;20974;-62
2022/03/31 08:55:31;;;;;;;28.52;7.50;;;;;;;14.78;69.96;151367.22;1806273;79;20932;-62
2022/03/31 08:57:59;;;;;;;24.90;7.70;;;;;;;14.92;69.00;151402.34;1805245;78;21573;-61
2022/03/31 09:00:27;;;;;;;31.37;8.60;;;;;;;14.94;68.39;151406.28;1806007;79;21019;-63
2022/03/31 09:03:00;;;;;;;20.32;7.47;;;;;;;14.94;68.09;151407.56;1783943;79;21027;-60
2022/03/31 09:05:45;;;;;;;28.52;8.45;;;;;;;14.99;68.19;151419.28;1785958;79;21100;-60
2022/03/31 09:08:14;;;;;;;30.17;7.92;;;;;;;15.07;68.07;151440.09;1786167;79;20930;-61
2022/03/31 09:10:49;;;;;;;29.67;7.67;;;;;;;15.20;67.84;151471.36;1771224;79;21052;-61
2022/03/31 09:13:21;;;;;;;23.05;8.33;;;;;;;15.31;67.24;151499.97;1787423;78;21009;-60
2022/03/31 09:15:52;;;;;;;25.97;7.50;;;;;;;15.35;66.82;151510.38;1771516;81;21048;-61
2022/03/31 09:18:21;;;;;;;25.80;7.92;;;;;;;15.38;66.68;151518.23;1757942;81;21491;-62
2022/03/31 09:20:52;;;;;;;29.85;7.85;;;;;;;15.35;66.26;151510.38;1771536;79;20921;-64
2022/03/31 09:23:22;;;;;;;27.20;8.28;;;;;;;15.33;66.27;151505.19;1771506;79;21115;-60
2022/03/31 09:25:51;;;;;;;22.00;8.08;;;;;;;15.30;66.35;151497.38;1771257;81;21033;-59
2022/03/31 09:28:23;;;;;;;29.23;8.13;;;;;;;15.27;66.34;151489.56;1770863;81;21045;-60
2022/03/31 09:30:53;;;;;;;27.98;8.33;;;;;;;15.26;66.33;151486.97;1758449;81;21033;-60
2022/03/31 09:33:48;;;;;;;26.75;7.55;;;;;;;15.24;66.49;151483.03;1757524;81;21077;-60
2022/03/31 09:36:21;;;;;;;27.27;9.00;;;;;;;15.27;66.32;151489.56;1770506;79;22021;-60
2022/03/31 09:39:08;;;;;;;21.95;7.62;;;;;;;15.22;66.22;151477.84;1790821;79;21030;-63
2022/03/31 09:41:37;;;;;;;26.30;8.73;;;;;;;15.18;66.38;151468.75;1805228;79;21047;-61
2022/03/31 09:44:08;;;;;;;28.02;9.05;;;;;;;15.25;66.38;151484.37;1806120;79;20989;-61
2022/03/31 09:46:38;;;;;;;25.48;8.28;;;;;;;15.26;66.01;151486.97;1799392;79;21498;-62
2022/03/31 09:49:22;;;;;;;31.97;8.05;;;;;;;15.17;66.00;151466.16;1786441;79;21946;-62
2022/03/31 09:51:54;;;;;;;30.60;8.45;;;;;;;15.13;66.03;151455.70;1776653;79;20984;-62
2022/03/31 09:54:23;;;;;;;29.27;8.63;;;;;;;15.12;66.27;151453.09;1779055;79;21064;-64
2022/03/31 09:56:56;;;;;;;27.07;8.93;;;;;;;15.17;66.40;151466.16;1782050;78;21274;-62
2022/03/31 09:59:35;;;;;;;29.50;8.88;;;;;;;15.29;66.34;151494.78;1767613;80;21064;-61
2022/03/31 10:02:03;;;;;;;32.38;9.18;;;;;;;15.40;65.90;151523.44;1787617;79;21722;-62
2022/03/31 10:04:31;;;;;;;32.17;8.93;;;;;;;15.45;65.49;151536.45;1785020;79;21071;-62
2022/03/31 10:06:59;;;;;;;38.67;9.20;;;;;;;15.47;65.16;151541.66;1778788;80;21048;-61
2022/03/31 10:09:27;;;;;;;27.10;8.45;;;;;;;15.46;64.87;151539.06;1775364;80;21035;-60
2022/03/31 10:12:13;;;;;;;29.67;9.33;;;;;;;15.36;64.87;151512.98;1787380;79;21581;-60
2022/03/31 10:14:59;;;;;;;26.85;8.48;;;;;;;15.28;65.12;151493.50;1782654;78;21015;-60
2022/03/31 10:17:26;;;;;;;33.13;9.48;;;;;;;15.21;65.32;151473.97;1780643;80;21056;-61
2022/03/31 10:20:08;;;;;;;31.33;9.60;;;;;;;15.15;65.55;151460.95;1750134;80;21501;-65
2022/03/31 10:25:21;;;;;;;30.52;8.95;;;;;;;15.04;65.72;151432.28;1782753;80;21015;-60
2022/03/31 10:27:50;;;;;;;28.00;8.80;;;;;;;14.93;66.03;151403.67;1787556;80;20932;-60
2022/03/31 10:30:29;;;;;;;30.90;8.55;;;;;;;14.86;66.39;151386.75;1765064;80;21450;-59
2022/03/31 10:32:57;;;;;;;33.48;8.38;;;;;;;14.82;66.50;151376.34;1782369;79;21513;-62
2022/03/31 10:35:35;;;;;;;23.12;8.15;;;;;;;14.78;66.55;151367.22;1788197;79;21068;-60
2022/03/31 10:38:15;;;;;;;32.28;8.88;;;;;;;14.69;66.47;151343.72;1785617;79;20985;-62
2022/03/31 10:40:49;;;;;;;30.62;9.05;;;;;;;14.52;66.88;151302.11;1787314;79;21171;-61
2022/03/31 10:43:27;;;;;;;37.65;9.50;;;;;;;14.42;67.30;151277.37;1785334;78;21058;-62
2022/03/31 10:45:58;;;;;;;30.37;9.55;;;;;;;14.36;67.36;151260.45;1776563;80;21098;-60
2022/03/31 10:48:27;;;;;;;29.45;8.78;;;;;;;14.21;67.55;151224.00;1774382;79;21064;-60
2022/03/31 10:51:16;;;;;;;25.48;8.53;;;;;;;14.04;68.12;151181.08;1751458;80;21513;-60
2022/03/31 10:53:49;;;;;;;27.95;8.53;;;;;;;13.93;68.59;151153.77;1776873;79;21031;-60
2022/03/31 10:56:26;;;;;;;36.48;9.33;;;;;;;13.84;68.95;151130.38;1785175;77;21097;-59
2022/03/31 10:59:00;;;;;;;33.98;9.88;;;;;;;13.79;69.33;151117.33;1778959;79;21043;-60
2022/03/31 11:01:30;;;;;;;32.63;9.65;;;;;;;13.69;69.68;151093.94;1785612;79;21063;-62
2022/03/31 11:04:08;;;;;;;29.85;7.95;;;;;;;13.63;70.10;151078.34;1780026;79;20959;-62
2022/03/31 11:06:55;;;;;;;28.40;8.73;;;;;;;13.52;70.38;151049.72;1780039;80;22547;-62
2022/03/31 11:09:31;;;;;;;31.62;8.60;;;;;;;13.44;70.92;151031.52;1780508;80;20996;-62
2022/03/31 11:11:59;;;;;;;32.73;9.13;;;;;;;13.46;71.36;151035.41;1767828;80;21107;-62
2022/03/31 11:14:27;;;;;;;29.60;9.78;;;;;;;13.53;71.40;151052.31;1787638;80;22071;-60
2022/03/31 11:16:54;;;;;;;38.88;10.53;;;;;;;13.55;71.37;151057.50;1784813;80;21056;-62
2022/03/31 11:19:21;;;;;;;29.52;9.95;;;;;;;13.57;71.34;151064.03;1784348;78;21151;-62
2022/03/31 11:21:49;;;;;;;28.02;9.10;;;;;;;13.56;71.38;151060.11;1778299;78;21036;-62
2022/03/31 11:24:23;;;;;;;28.38;9.03;;;;;;;13.58;71.47;151066.63;1760727;80;20940;-62
2022/03/31 11:26:54;;;;;;;33.13;9.53;;;;;;;13.60;71.37;151071.83;1787374;79;21068;-62
2022/03/31 11:29:26;;;;;;;35.28;9.63;;;;;;;13.64;71.42;151080.94;1785495;79;21131;-60
2022/03/31 11:31:52;;;;;;;39.45;9.78;;;;;;;13.68;71.37;151091.34;1788865;79;21323;-61
2022/03/31 11:34:27;;;;;;;32.10;9.30;;;;;;;13.72;71.30;151101.73;1761922;80;21061;-61
2022/03/31 11:36:55;;;;;;;28.87;8.65;;;;;;;13.77;70.87;151112.13;1767476;79;21643;-62
2022/03/31 11:39:30;;;;;;;33.05;9.03;;;;;;;13.74;70.50;151106.94;1774760;80;21035;-61
2022/03/31 11:41:59;;;;;;;28.92;8.35;;;;;;;13.74;70.63;151106.94;1783526;80;21114;-61
2022/03/31 11:44:29;;;;;;;32.20;9.10;;;;;;;13.76;70.81;151110.86;1780083;80;21452;-61
2022/03/31 11:46:58;;;;;;;33.85;9.03;;;;;;;13.78;70.74;151114.72;1788114;79;20987;-59
2022/03/31 11:49:27;;;;;;;30.60;9.15;;;;;;;13.74;70.82;151106.94;1783829;78;21066;-60